Time;durP1;ratioP1;P1;durP2;ratioP2;P2;SDS_P1;SDS_P2;PMS_P1;PMS_P2;Temp;Humidity;BMP_temperature;BMP_pressure;BME280_temperature;BME280_humidity;BME280_pressure;Samples;Min_cycle;Max_cycle;Signal;HPM_P1;HPM_P2
2022/09/26 00:00:41;;;;;;;4.65;2.53;;;;;;;10.71;72.94;99692.25;5093709;28;20063;-64
2022/09/26 00:03:10;;;;;;;6.75;3.20;;;;;;;10.76;73.11;99692.03;5093530;28;20496;-63
2022/09/26 00:05:39;;;;;;;3.67;2.67;;;;;;;10.81;72.35;99694.63;5097539;28;20059;-63
2022/09/26 00:08:07;;;;;;;3.88;2.50;;;;;;;10.87;72.76;99686.91;5113573;28;20412;-64
2022/09/26 00:10:35;;;;;;;4.95;2.63;;;;;;;10.90;72.42;99680.69;5114089;28;20051;-63
2022/09/26 00:13:02;;;;;;;4.43;2.83;;;;;;;10.97;72.45;99676.19;5113927;28;20058;-63
2022/09/26 00:15:29;;;;;;;6.00;2.70;;;;;;;11.05;71.39;99677.31;5113946;28;20062;-63
2022/09/26 00:17:57;;;;;;;4.25;2.75;;;;;;;11.10;71.40;99662.34;5113414;28;20051;-64
2022/09/26 00:20:24;;;;;;;3.97;2.60;;;;;;;11.20;71.78;99656.38;5093115;28;20056;-64
2022/09/26 00:22:52;;;;;;;5.55;2.90;;;;;;;11.25;71.07;99663.72;5093224;28;20056;-63
2022/09/26 00:25:20;;;;;;;4.75;2.92;;;;;;;11.31;71.12;99659.59;5092912;28;20052;-63
2022/09/26 00:27:47;;;;;;;5.93;2.65;;;;;;;11.35;70.96;99658.56;5093384;28;20660;-64
2022/09/26 00:30:16;;;;;;;4.60;2.88;;;;;;;11.40;70.92;99662.31;5093534;28;20063;-63
2022/09/26 00:32:44;;;;;;;3.88;2.92;;;;;;;11.44;70.68;99652.09;5092939;28;20067;-63
2022/09/26 00:35:17;;;;;;;6.93;2.85;;;;;;;11.45;70.54;99646.19;5109919;28;20051;-64
2022/09/26 00:37:44;;;;;;;4.00;3.10;;;;;;;11.46;70.73;99642.22;5113432;28;20051;-64
2022/09/26 00:40:13;;;;;;;3.88;2.78;;;;;;;11.51;70.65;99635.66;5107437;28;20531;-64
2022/09/26 00:42:40;;;;;;;5.88;3.03;;;;;;;11.55;70.67;99636.59;5092909;28;20063;-64
2022/09/26 00:45:12;;;;;;;4.70;2.65;;;;;;;11.55;70.62;99625.44;5093035;28;20056;-63
2022/09/26 00:47:44;;;;;;;4.25;2.53;;;;;;;11.55;69.96;99617.88;5098571;28;20055;-65
2022/09/26 00:50:21;;;;;;;5.47;2.63;;;;;;;11.48;69.65;99605.66;5112953;28;20126;-65
2022/09/26 00:52:53;;;;;;;5.18;2.50;;;;;;;11.41;69.91;99608.19;5112929;28;20059;-64
2022/09/26 00:55:27;;;;;;;5.70;2.85;;;;;;;11.35;70.04;99588.03;5113229;28;20138;-64
2022/09/26 00:57:59;;;;;;;4.47;2.67;;;;;;;11.29;70.30;99597.78;5113122;28;20052;-64
2022/09/26 01:00:27;;;;;;;5.80;2.85;;;;;;;11.23;70.57;99587.97;5112877;28;20060;-63
2022/09/26 01:02:54;;;;;;;3.83;2.60;;;;;;;11.16;70.51;99594.09;5101920;28;20059;-63
2022/09/26 01:05:24;;;;;;;4.68;2.90;;;;;;;11.12;70.45;99582.00;5103962;28;20078;-63
2022/09/26 01:07:55;;;;;;;5.22;3.50;;;;;;;11.07;70.64;99580.25;5103116;28;20755;-64
2022/09/26 01:10:24;;;;;;;5.22;2.80;;;;;;;11.03;70.66;99570.94;5092651;28;20071;-63
2022/09/26 01:12:51;;;;;;;4.40;2.60;;;;;;;10.99;70.84;99572.75;5092552;28;20060;-63
2022/09/26 01:15:19;;;;;;;3.28;2.75;;;;;;;10.94;70.98;99565.44;5092710;28;20811;-64
2022/09/26 01:17:50;;;;;;;5.15;2.88;;;;;;;10.92;70.86;99572.50;5109379;28;20066;-63
2022/09/26 01:20:40;;;;;;;4.65;2.75;;;;;;;10.94;71.55;99559.03;5112825;28;20068;-63
2022/09/26 01:23:42;;;;;;;4.22;2.90;;;;;;;10.97;71.30;99561.16;5112581;28;20055;-63
2022/09/26 01:26:28;;;;;;;4.47;2.65;;;;;;;11.01;71.88;99559.31;5081991;28;20059;-63
2022/09/26 01:29:23;;;;;;;5.88;2.67;;;;;;;11.06;71.09;99556.31;5092545;28;20068;-64
2022/09/26 01:34:54;;;;;;;4.10;2.88;;;;;;;11.13;71.87;99544.63;5109578;28;20059;-63
2022/09/26 01:37:31;;;;;;;5.47;2.90;;;;;;;11.17;71.20;99539.97;5116861;28;20056;-63
2022/09/26 01:40:10;;;;;;;5.63;3.03;;;;;;;11.21;71.64;99540.94;5116427;28;20484;-63
2022/09/26 01:42:46;;;;;;;3.60;2.40;;;;;;;11.25;71.91;99536.31;5096337;28;20067;-63
2022/09/26 01:45:18;;;;;;;5.22;2.88;;;;;;;11.32;71.16;99535.78;5096447;28;20404;-63
2022/09/26 01:47:57;;;;;;;5.65;2.88;;;;;;;11.37;71.11;99535.53;5095984;28;20056;-64
2022/09/26 01:50:31;;;;;;;4.05;2.53;;;;;;;11.39;70.98;99530.44;5095624;28;20056;-63
2022/09/26 01:53:02;;;;;;;5.57;3.03;;;;;;;11.47;70.71;99528.75;5095913;28;20052;-64
2022/09/26 01:55:36;;;;;;;5.22;2.90;;;;;;;11.51;70.30;99533.28;5106328;28;20059;-63
2022/09/26 01:58:08;;;;;;;5.65;2.88;;;;;;;11.58;70.14;99529.91;5114812;28;20051;-64
2022/09/26 02:00:37;;;;;;;5.43;2.83;;;;;;;11.63;70.22;99521.31;5100532;28;20423;-64
2022/09/26 02:03:11;;;;;;;5.47;2.88;;;;;;;11.67;69.61;99519.47;5112867;28;20055;-63
2022/09/26 02:05:42;;;;;;;3.55;2.60;;;;;;;11.72;69.75;99519.28;5116250;28;20499;-63
2022/09/26 02:08:15;;;;;;;6.15;2.67;;;;;;;11.76;69.02;99511.84;5116229;28;20058;-64
2022/09/26 02:10:47;;;;;;;5.63;2.67;;;;;;;11.82;69.10;99504.03;5113055;28;20059;-63
2022/09/26 02:13:21;;;;;;;4.13;2.80;;;;;;;11.86;69.05;99499.41;5095623;28;20432;-63
2022/09/26 02:15:51;;;;;;;5.13;3.20;;;;;;;11.87;68.58;99497.44;5095570;28;20086;-63
2022/09/26 02:18:23;;;;;;;6.65;3.60;;;;;;;11.94;68.43;99486.53;5095389;28;20055;-63
2022/09/26 02:20:59;;;;;;;4.40;2.83;;;;;;;11.95;68.28;99480.63;5095891;28;20485;-64
2022/09/26 02:23:26;;;;;;;4.47;2.90;;;;;;;11.93;68.38;99480.16;5095416;28;20511;-63
2022/09/26 02:25:58;;;;;;;7.50;3.45;;;;;;;11.97;68.16;99483.06;5094989;28;20055;-63
2022/09/26 02:28:27;;;;;;;5.43;2.90;;;;;;;11.98;68.08;99470.72;5095214;28;20056;-64
2022/09/26 02:31:00;;;;;;;5.60;3.80;;;;;;;12.00;68.29;99471.19;5095409;28;20070;-64
2022/09/26 02:33:29;;;;;;;5.88;3.50;;;;;;;12.01;68.12;99477.59;5097447;28;20059;-64
2022/09/26 02:35:57;;;;;;;5.57;3.47;;;;;;;12.07;68.12;99474.19;5115956;28;20055;-63
2022/09/26 02:38:27;;;;;;;9.35;3.85;;;;;;;12.11;68.18;99463.16;5115635;28;20047;-64
2022/09/26 02:40:59;;;;;;;5.63;3.80;;;;;;;12.09;68.21;99457.91;5108994;28;20492;-63
2022/09/26 02:43:43;;;;;;;5.93;3.63;;;;;;;12.10;67.84;99453.97;5114754;28;20379;-63
2022/09/26 02:46:42;;;;;;;6.35;4.78;;;;;;;12.06;67.99;99450.25;5115792;28;20070;-64
2022/09/26 02:49:32;;;;;;;7.50;5.18;;;;;;;12.09;68.43;99445.94;5115368;28;20062;-64
2022/09/26 02:52:14;;;;;;;7.32;4.68;;;;;;;12.14;68.18;99443.75;5115217;28;20500;-64
2022/09/26 02:54:50;;;;;;;6.05;4.30;;;;;;;12.19;68.38;99437.09;5105550;28;20063;-63
2022/09/26 02:57:30;;;;;;;6.35;4.95;;;;;;;12.23;68.13;99445.59;5094842;28;20064;-64
2022/09/26 03:00:03;;;;;;;7.25;4.18;;;;;;;12.26;68.37;99437.31;5094771;28;20059;-64
2022/09/26 03:02:35;;;;;;;8.57;4.70;;;;;;;12.32;67.97;99432.31;5104930;28;20059;-63
2022/09/26 03:05:11;;;;;;;7.97;4.38;;;;;;;12.30;68.12;99413.13;5109255;28;20048;-63
2022/09/26 03:07:44;;;;;;;9.40;4.43;;;;;;;12.38;68.22;99419.75;5114123;28;20062;-64
2022/09/26 03:10:14;;;;;;;7.38;5.00;;;;;;;12.39;67.47;99411.00;5115270;28;20074;-63
2022/09/26 03:12:43;;;;;;;;;;;;;;;12.28;67.88;99395.09;5115580;28;20601;-64
2022/09/26 03:15:12;;;;;;;8.27;5.53;;;;;;;12.28;68.37;99392.31;5115139;28;19927;-63
2022/09/26 03:17:44;;;;;;;12.20;6.55;;;;;;;12.31;67.98;99386.84;5114499;28;20051;-63
2022/09/26 03:20:16;;;;;;;8.50;6.53;;;;;;;12.31;68.77;99380.44;5095326;28;20067;-64
2022/09/26 03:22:44;;;;;;;9.32;6.03;;;;;;;12.28;68.27;99386.72;5094533;28;20138;-63
2022/09/26 03:25:19;;;;;;;10.07;7.13;;;;;;;12.18;68.84;99380.47;5094550;28;20060;-64
2022/09/26 03:27:50;;;;;;;9.50;6.80;;;;;;;12.19;68.82;99378.47;5094204;28;20063;-63
2022/09/26 03:30:19;;;;;;;8.57;6.22;;;;;;;12.21;69.13;99364.97;5094228;28;20400;-63
2022/09/26 03:32:48;;;;;;;11.57;7.43;;;;;;;12.21;69.14;99364.19;5093914;28;20055;-63
2022/09/26 03:35:19;;;;;;;12.98;7.97;;;;;;;12.17;68.94;99367.66;5114536;28;20416;-63
2022/09/26 03:37:47;;;;;;;9.15;7.47;;;;;;;12.17;69.25;99369.66;5114619;28;20055;-63
2022/09/26 03:40:14;;;;;;;10.13;7.22;;;;;;;12.08;69.65;99364.19;5114337;28;20055;-63
2022/09/26 03:42:46;;;;;;;7.13;6.30;;;;;;;12.10;69.80;99369.44;5114167;28;20055;-63
2022/09/26 03:45:13;;;;;;;12.60;7.32;;;;;;;12.09;69.98;99349.06;5114650;28;20472;-63
2022/09/26 03:47:41;;;;;;;8.98;7.68;;;;;;;12.06;70.39;99349.78;5111301;28;20052;-63
2022/09/26 03:50:09;;;;;;;11.57;8.48;;;;;;;12.07;69.95;99350.59;5113777;28;20055;-63
2022/09/26 03:52:38;;;;;;;12.43;8.27;;;;;;;12.08;70.38;99350.25;5113854;28;20051;-63
2022/09/26 03:55:05;;;;;;;10.85;8.38;;;;;;;12.08;70.34;99350.25;5113336;28;20056;-63
2022/09/26 03:57:33;;;;;;;13.15;8.00;;;;;;;12.07;70.81;99347.78;5112677;28;20060;-64
2022/09/26 04:00:01;;;;;;;12.38;8.38;;;;;;;11.94;71.04;99342.22;5114055;28;20060;-63
2022/09/26 04:02:28;;;;;;;9.93;8.32;;;;;;;12.02;70.94;99328.50;5112499;28;20056;-63
2022/09/26 04:04:58;;;;;;;11.20;7.63;;;;;;;11.98;71.02;99332.00;5112398;28;20725;-62
2022/09/26 04:07:26;;;;;;;9.75;8.38;;;;;;;12.04;70.68;99321.41;5096610;28;20056;-63
2022/09/26 04:09:54;;;;;;;11.77;9.43;;;;;;;12.02;70.67;99311.78;5092500;28;20052;-63
2022/09/26 04:12:21;;;;;;;10.75;9.55;;;;;;;11.92;71.36;99316.66;5093448;28;20512;-63
2022/09/26 04:14:49;;;;;;;12.98;8.88;;;;;;;11.95;71.14;99309.59;5093393;28;20484;-63
2022/09/26 04:17:16;;;;;;;12.02;9.38;;;;;;;12.00;71.21;99303.75;5112548;28;20055;-63
2022/09/26 04:19:43;;;;;;;13.52;10.35;;;;;;;11.97;71.06;99298.88;5113345;28;20081;-62
2022/09/26 04:22:11;;;;;;;10.13;9.02;;;;;;;11.99;70.86;99288.19;5112072;28;20569;-63
2022/09/26 04:24:38;;;;;;;15.80;9.38;;;;;;;11.92;71.43;99282.38;5096597;28;20064;-63
2022/09/26 04:27:07;;;;;;;13.40;10.18;;;;;;;11.96;71.32;99283.28;5113274;28;20071;-63
2022/09/26 04:29:34;;;;;;;11.93;10.48;;;;;;;11.94;71.37;99274.44;5113262;28;20518;-63
2022/09/26 04:32:02;;;;;;;12.27;10.20;;;;;;;12.00;70.76;99275.84;5100244;28;20497;-62
2022/09/26 04:34:29;;;;;;;12.40;10.57;;;;;;;11.91;71.68;99273.19;5103633;28;20193;-63
2022/09/26 04:36:59;;;;;;;13.88;11.15;;;;;;;11.87;71.84;99261.06;5112975;28;20055;-63
2022/09/26 04:39:26;;;;;;;;;;;;;;;11.84;71.84;99258.16;5113942;28;20117;-63
2022/09/26 04:41:53;;;;;;;15.30;11.77;;;;;;;11.78;72.08;99252.03;5113277;28;19920;-63
2022/09/26 04:44:22;;;;;;;15.15;11.95;;;;;;;11.80;72.21;99249.72;5107074;28;20669;-63
2022/09/26 04:46:49;;;;;;;13.82;11.90;;;;;;;11.78;72.39;99247.28;5092370;28;20052;-63
2022/09/26 04:49:16;;;;;;;15.48;12.48;;;;;;;11.87;71.92;99233.19;5092636;28;20063;-63
2022/09/26 04:51:44;;;;;;;15.48;12.00;;;;;;;11.87;72.18;99237.94;5092246;28;20055;-62
2022/09/26 04:54:11;;;;;;;20.13;12.32;;;;;;;11.93;71.75;99244.94;5092568;28;20075;-63
2022/09/26 04:56:38;;;;;;;13.90;11.38;;;;;;;11.95;72.02;99239.81;5092697;28;20119;-62
2022/09/26 04:59:06;;;;;;;14.68;12.20;;;;;;;11.94;71.69;99233.41;5109314;28;20048;-63
2022/09/26 05:01:37;;;;;;;11.25;10.15;;;;;;;11.96;71.80;99235.84;5112568;28;20055;-63
2022/09/26 05:04:05;;;;;;;12.77;11.23;;;;;;;11.97;71.48;99248.66;5112548;28;20056;-63
2022/09/26 05:06:32;;;;;;;14.57;10.73;;;;;;;12.02;71.15;99233.63;5112426;28;20388;-63
2022/09/26 05:08:59;;;;;;;13.15;10.15;;;;;;;12.04;71.11;99231.28;5110753;28;20055;-63
2022/09/26 05:11:27;;;;;;;12.02;9.65;;;;;;;12.10;70.88;99222.31;5110930;28;20055;-63
2022/09/26 05:13:54;;;;;;;11.23;9.85;;;;;;;12.09;70.97;99217.06;5099938;28;20070;-63
2022/09/26 05:16:22;;;;;;;10.93;9.07;;;;;;;12.18;70.76;99207.38;5092506;28;20487;-63
2022/09/26 05:18:55;;;;;;;12.52;9.27;;;;;;;12.19;70.32;99206.19;5092064;28;20052;-63
2022/09/26 05:21:22;;;;;;;11.68;9.63;;;;;;;12.18;70.67;99209.38;5092104;28;20060;-63
2022/09/26 05:26:41;;;;;;;12.32;8.32;;;;;;;12.12;71.25;99200.44;5114164;28;20058;-63
2022/09/26 05:29:08;;;;;;;13.68;9.50;;;;;;;12.09;70.98;99211.50;5112440;28;20408;-63
2022/09/26 05:31:37;;;;;;;10.32;8.18;;;;;;;12.06;71.54;99204.66;5112673;28;20051;-64
2022/09/26 05:34:06;;;;;;;11.93;8.80;;;;;;;12.04;71.17;99209.78;5112096;28;20063;-63
2022/09/26 05:36:34;;;;;;;11.82;8.98;;;;;;;12.10;71.28;99190.81;5112373;28;20075;-63
2022/09/26 05:39:02;;;;;;;11.82;8.05;;;;;;;12.04;71.12;99181.88;5092997;28;20131;-63
2022/09/26 05:41:29;;;;;;;11.70;8.27;;;;;;;12.12;70.84;99185.69;5092408;28;20060;-63
2022/09/26 05:43:57;;;;;;;10.65;7.85;;;;;;;12.07;71.26;99183.94;5092207;28;20052;-63
2022/09/26 05:46:27;;;;;;;10.02;8.20;;;;;;;12.05;70.63;99191.84;5098071;28;20496;-63
2022/09/26 05:48:56;;;;;;;10.38;8.48;;;;;;;12.02;70.89;99178.63;5105094;28;20067;-63
2022/09/26 05:51:24;;;;;;;10.30;8.38;;;;;;;12.16;70.33;99183.78;5091610;28;20416;-63
2022/09/26 05:53:52;;;;;;;10.90;7.82;;;;;;;12.15;70.36;99174.59;5091782;28;20061;-64
2022/09/26 05:56:19;;;;;;;11.07;7.53;;;;;;;12.03;70.99;99171.84;5092236;28;20067;-64
2022/09/26 05:58:47;;;;;;;11.40;8.10;;;;;;;12.07;70.05;99181.13;5092176;28;20504;-64
2022/09/26 06:01:16;;;;;;;11.02;7.70;;;;;;;12.11;70.37;99168.09;5091799;28;20056;-64
2022/09/26 06:03:44;;;;;;;10.55;6.82;;;;;;;12.18;69.72;99179.47;5097882;28;20048;-64
2022/09/26 06:06:13;;;;;;;12.77;7.78;;;;;;;12.22;69.83;99175.94;5092002;28;20399;-64
2022/09/26 06:08:42;;;;;;;9.02;7.50;;;;;;;12.24;69.67;99173.63;5091667;28;20064;-64
2022/09/26 06:11:12;;;;;;;7.13;6.43;;;;;;;12.29;69.19;99171.38;5091930;28;20056;-64
2022/09/26 06:13:41;;;;;;;9.38;7.03;;;;;;;12.34;68.68;99167.50;5091549;28;20060;-64
2022/09/26 06:16:12;;;;;;;9.65;6.10;;;;;;;12.46;68.07;99172.22;5091546;28;20052;-64
2022/09/26 06:18:39;;;;;;;9.18;6.68;;;;;;;12.47;67.98;99160.66;5093149;28;20723;-64
2022/09/26 06:21:09;;;;;;;10.18;7.22;;;;;;;12.59;67.71;99152.22;5095280;28;20067;-64
2022/09/26 06:23:36;;;;;;;9.30;6.93;;;;;;;12.76;66.99;99139.03;5095242;28;20063;-64
2022/09/26 06:26:07;;;;;;;9.75;6.93;;;;;;;12.86;66.64;99149.66;5099565;28;20055;-64
2022/09/26 06:28:35;;;;;;;9.93;7.50;;;;;;;12.95;66.72;99147.50;5101751;28;20505;-64
2022/09/26 06:31:08;;;;;;;8.70;6.20;;;;;;;13.09;65.40;99130.25;5111854;28;20059;-64
2022/09/26 06:33:36;;;;;;;6.47;5.82;;;;;;;13.32;64.80;99129.59;5115424;28;20066;-64
2022/09/26 06:36:05;;;;;;;8.25;6.45;;;;;;;13.51;64.21;99137.19;5115622;28;20051;-64
2022/09/26 06:38:32;;;;;;;10.45;6.15;;;;;;;13.76;63.15;99129.31;5115394;28;20369;-64
2022/09/26 06:41:00;;;;;;;10.23;6.65;;;;;;;14.27;61.61;99119.88;5115202;28;20063;-64
2022/09/26 06:43:30;;;;;;;7.95;5.63;;;;;;;14.50;60.42;99114.28;5094889;28;20138;-64
2022/09/26 06:45:57;;;;;;;;;;;;;;;14.58;61.25;99116.06;5095554;28;20063;-64
2022/09/26 06:48:24;;;;;;;6.28;5.07;;;;;;;15.00;59.68;99107.50;5094956;28;19923;-64
2022/09/26 06:50:52;;;;;;;7.13;5.25;;;;;;;15.39;58.25;99100.81;5111422;28;20051;-64
2022/09/26 06:53:19;;;;;;;7.57;4.88;;;;;;;15.47;57.94;99101.72;5115176;28;20051;-64
2022/09/26 06:55:46;;;;;;;8.25;5.47;;;;;;;15.12;57.38;99094.44;5110752;28;20052;-64
2022/09/26 06:58:13;;;;;;;9.35;5.40;;;;;;;15.26;58.06;99085.44;5114942;28;20483;-64
2022/09/26 07:00:42;;;;;;;6.07;4.88;;;;;;;15.07;58.50;99094.78;5104858;28;20048;-64
2022/09/26 07:03:10;;;;;;;8.05;4.28;;;;;;;14.93;58.34;99089.75;5096378;28;20500;-64
2022/09/26 07:05:38;;;;;;;6.05;4.18;;;;;;;14.79;58.50;99085.56;5092943;28;20504;-64
2022/09/26 07:08:05;;;;;;;5.78;4.30;;;;;;;14.86;57.40;99081.25;5106337;28;20462;-64
2022/09/26 07:10:34;;;;;;;5.25;4.03;;;;;;;14.73;58.78;99075.84;5102693;28;20047;-64
2022/09/26 07:13:04;;;;;;;6.15;4.22;;;;;;;14.94;56.85;99072.56;5093911;28;20060;-64
2022/09/26 07:15:32;;;;;;;;;;;;;;;14.69;57.67;99066.59;5094592;28;20508;-64
2022/09/26 07:18:02;;;;;;;6.65;4.00;;;;;;;15.04;57.67;99070.31;5099530;28;19919;-63
2022/09/26 07:20:32;;;;;;;5.80;4.10;;;;;;;14.91;57.74;99075.31;5114503;28;20048;-64
2022/09/26 07:23:01;;;;;;;6.65;4.13;;;;;;;15.02;57.31;99060.25;5113000;28;20047;-64
2022/09/26 07:25:30;;;;;;;7.13;3.80;;;;;;;14.82;58.36;99061.56;5093743;28;20165;-64
2022/09/26 07:27:57;;;;;;;5.25;3.75;;;;;;;14.82;56.88;99058.75;5101585;28;20055;-63
2022/09/26 07:30:26;;;;;;;5.72;3.60;;;;;;;14.93;57.32;99051.34;5102437;28;20052;-64
2022/09/26 07:32:59;;;;;;;8.20;3.75;;;;;;;14.94;56.81;99043.72;5099244;28;20050;-64
2022/09/26 07:35:28;;;;;;;7.97;3.63;;;;;;;15.21;57.03;99036.09;5107230;28;20052;-64
2022/09/26 07:37:56;;;;;;;4.20;3.20;;;;;;;15.22;56.51;99046.09;5094592;28;20056;-64
2022/09/26 07:40:23;;;;;;;5.45;3.22;;;;;;;15.14;56.15;99033.16;5107133;28;20056;-64
2022/09/26 07:42:51;;;;;;;4.95;3.00;;;;;;;15.30;56.42;99036.59;5103431;28;20051;-64
2022/09/26 07:50:09;;;;;;;4.90;2.65;;;;;;;15.37;54.86;99039.50;5108855;28;20066;-64
2022/09/26 07:50:57;;;;;;;3.72;2.55;;;;;;;15.31;55.09;99020.59;5078703;28;20052;-64
2022/09/26 07:53:25;;;;;;;6.13;2.50;;;;;;;15.49;53.86;99023.59;5102271;28;20047;-64
2022/09/26 07:56:10;;;;;;;5.15;2.00;;;;;;;15.40;53.51;99035.13;5099032;28;20077;-64
2022/09/26 07:58:39;;;;;;;2.80;2.10;;;;;;;15.14;54.95;99039.59;5102809;28;20419;-64
2022/09/26 08:01:10;;;;;;;;;;;;;;;14.95;54.51;99031.31;5110405;28;20430;-64
2022/09/26 08:03:37;;;;;;;4.82;2.83;;;;;;;15.04;54.50;99019.84;5109838;28;19920;-64
2022/09/26 08:06:06;;;;;;;6.03;2.10;;;;;;;15.10;54.23;99023.91;5103965;28;20066;-64
2022/09/26 08:08:35;;;;;;;4.07;2.30;;;;;;;15.01;54.47;99019.41;5101093;28;20051;-63
2022/09/26 08:11:03;;;;;;;4.13;2.30;;;;;;;15.00;55.54;99016.97;5103240;28;20058;-63
2022/09/26 08:13:31;;;;;;;4.53;2.40;;;;;;;14.93;54.65;99017.69;5102461;28;20071;-64
2022/09/26 08:16:03;;;;;;;4.75;2.22;;;;;;;14.99;54.70;99016.19;5104391;28;20056;-64
2022/09/26 08:18:31;;;;;;;3.83;2.28;;;;;;;15.00;55.17;99014.16;5099120;28;20062;-63
2022/09/26 08:20:59;;;;;;;4.43;2.22;;;;;;;15.00;55.09;99020.59;5106061;28;20056;-64
2022/09/26 08:23:28;;;;;;;3.90;2.00;;;;;;;14.94;54.68;99002.47;5099288;28;20058;-64
2022/09/26 08:25:56;;;;;;;4.22;1.83;;;;;;;14.96;54.98;99013.31;5101459;28;20054;-64
2022/09/26 08:28:23;;;;;;;4.90;2.10;;;;;;;14.94;55.69;99008.06;5111236;28;20055;-64
2022/09/26 08:30:50;;;;;;;3.70;2.30;;;;;;;14.93;54.81;99008.44;5109561;28;20404;-64
2022/09/26 08:33:20;;;;;;;3.30;2.15;;;;;;;14.89;55.97;99011.22;5102844;28;20052;-64
2022/09/26 08:35:47;;;;;;;4.80;1.95;;;;;;;14.86;54.81;99017.56;5106067;28;20055;-64
2022/09/26 08:38:14;;;;;;;4.50;2.10;;;;;;;14.80;55.21;99008.72;5102257;28;20129;-64
2022/09/26 08:40:54;;;;;;;3.55;1.80;;;;;;;14.55;57.23;99011.16;5107590;28;20055;-64
2022/09/26 08:43:39;;;;;;;3.90;2.10;;;;;;;14.67;56.76;99014.91;5106737;28;20419;-64
2022/09/26 08:46:37;;;;;;;4.30;1.92;;;;;;;14.50;57.67;98997.41;5099344;28;20060;-64
2022/09/26 08:49:27;;;;;;;5.53;2.42;;;;;;;14.51;57.45;99004.66;5105647;28;20559;-64
2022/09/26 08:51:57;;;;;;;6.35;2.47;;;;;;;14.46;57.83;98990.94;5103912;28;20048;-64
2022/09/26 08:54:34;;;;;;;4.78;2.25;;;;;;;14.43;57.48;98994.50;5102250;28;20054;-63
2022/09/26 08:57:11;;;;;;;4.38;2.33;;;;;;;14.36;57.78;98994.38;5108131;28;20053;-63
2022/09/26 08:59:42;;;;;;;3.85;2.38;;;;;;;14.28;58.30;98996.28;5105316;28;20411;-63
2022/09/26 09:02:16;;;;;;;3.72;2.20;;;;;;;14.21;58.81;99016.59;5100880;28;20052;-64
2022/09/26 09:04:50;;;;;;;4.07;2.28;;;;;;;13.85;61.59;98992.75;5107263;28;20058;-63
2022/09/26 09:07:22;;;;;;;3.60;2.25;;;;;;;13.84;64.52;99001.50;5099182;28;20059;-62
2022/09/26 09:09:51;;;;;;;4.45;2.40;;;;;;;13.80;63.51;99007.06;5089751;28;20052;-62
2022/09/26 09:12:30;;;;;;;4.90;2.33;;;;;;;13.66;63.77;98999.19;5107351;28;20055;-62
2022/09/26 09:15:13;;;;;;;6.13;2.25;;;;;;;13.59;63.57;99002.69;5097043;28;20401;-62
2022/09/26 09:17:51;;;;;;;3.47;1.98;;;;;;;13.53;62.78;99004.16;5106334;28;20059;-62
2022/09/26 09:20:27;;;;;;;3.55;2.00;;;;;;;13.47;63.61;98988.84;5107280;28;20122;-62
2022/09/26 09:23:09;;;;;;;5.95;2.65;;;;;;;13.18;66.01;98996.66;5101210;28;20055;-61
2022/09/26 09:25:46;;;;;;;4.93;2.53;;;;;;;13.26;65.06;98994.00;5093973;28;20531;-62
2022/09/26 09:28:26;;;;;;;5.25;2.50;;;;;;;13.24;65.27;99008.34;5104490;28;20052;-62
2022/09/26 09:30:59;;;;;;;4.22;2.50;;;;;;;13.13;66.24;98991.38;5102665;28;20404;-62
2022/09/26 09:33:32;;;;;;;4.20;2.38;;;;;;;13.05;66.95;98992.38;5109789;28;20055;-61
2022/09/26 09:36:05;;;;;;;5.70;2.60;;;;;;;13.17;67.21;98992.25;5099043;28;20056;-61
2022/09/26 09:38:36;;;;;;;6.63;2.47;;;;;;;13.28;67.13;98988.84;5101523;28;20058;-62
2022/09/26 09:41:08;;;;;;;4.03;2.20;;;;;;;13.35;65.19;98984.22;5102919;28;20062;-62
2022/09/26 09:43:42;;;;;;;3.97;2.28;;;;;;;13.45;64.67;98993.22;5108424;28;20062;-63
2022/09/26 09:46:15;;;;;;;5.63;2.50;;;;;;;13.57;64.46;98993.06;5099060;28;20492;-63
2022/09/26 09:48:43;;;;;;;4.55;2.25;;;;;;;13.62;64.00;98975.94;5101074;28;20075;-63
2022/09/26 09:51:41;;;;;;;2.60;1.83;;;;;;;13.58;62.89;98973.06;5110052;28;20531;-64
2022/09/26 09:54:44;;;;;;;3.10;2.00;;;;;;;13.68;62.25;98974.47;5102451;28;20488;-63
2022/09/26 09:57:33;;;;;;;4.78;2.45;;;;;;;13.59;62.74;98954.31;5067537;28;20060;-63
2022/09/26 10:00:11;;;;;;;4.60;2.30;;;;;;;13.80;62.13;98946.28;5104068;28;20534;-63
2022/09/26 10:02:47;;;;;;;4.57;2.22;;;;;;;13.81;61.33;98947.91;5100602;28;20052;-63
2022/09/26 10:05:22;;;;;;;5.47;2.30;;;;;;;13.94;62.43;98945.75;5110712;28;20432;-63
2022/09/26 10:07:50;;;;;;;3.55;1.70;;;;;;;14.02;62.70;98946.66;5112824;28;20055;-63
2022/09/26 10:10:23;;;;;;;5.88;2.13;;;;;;;14.17;61.63;98928.91;5104175;28;20059;-63
2022/09/26 10:12:52;;;;;;;3.90;2.40;;;;;;;14.15;64.57;98924.84;5103237;28;20048;-63
2022/09/26 10:15:25;;;;;;;3.63;2.17;;;;;;;14.12;62.81;98931.22;5103080;28;20484;-63
2022/09/26 10:18:02;;;;;;;4.63;2.33;;;;;;;13.86;64.25;98931.97;5108877;28;20472;-64
2022/09/26 10:20:37;;;;;;;4.47;2.28;;;;;;;13.88;65.50;98924.84;5104997;28;20055;-67
2022/09/26 10:23:15;;;;;;;5.28;2.20;;;;;;;13.64;66.46;98905.63;5109080;28;20059;-66
2022/09/26 10:25:47;;;;;;;4.20;2.00;;;;;;;13.54;66.50;98905.09;5095958;28;20060;-65
2022/09/26 10:28:26;;;;;;;4.40;2.30;;;;;;;13.43;66.24;98915.25;5114438;28;20055;-65
2022/09/26 10:30:59;;;;;;;2.60;1.77;;;;;;;13.33;67.18;98925.09;5115027;28;20396;-66
2022/09/26 10:33:32;;;;;;;4.35;2.00;;;;;;;12.82;69.26;98900.09;5115550;28;20055;-65
2022/09/26 10:36:07;;;;;;;4.20;2.10;;;;;;;12.98;70.32;98889.63;5115190;28;20059;-64
2022/09/26 10:40:43;;;;;;;4.85;2.17;;;;;;;13.30;68.88;98903.44;5115483;28;20056;-64
2022/09/26 10:41:24;;;;;;;4.20;2.38;;;;;;;13.20;67.56;98878.84;5115355;28;20048;-64
2022/09/26 10:43:56;;;;;;;4.35;2.03;;;;;;;13.34;67.34;98879.16;5113568;28;20086;-64
2022/09/26 10:46:25;;;;;;;3.58;1.70;;;;;;;13.47;67.20;98856.59;5115442;28;20056;-63
2022/09/26 10:48:55;;;;;;;3.38;1.63;;;;;;;13.32;66.91;98863.94;5115197;28;20047;-64
2022/09/26 10:51:28;;;;;;;5.00;1.88;;;;;;;13.48;66.19;98856.22;5101321;28;20048;-63
2022/09/26 10:54:03;;;;;;;2.85;2.15;;;;;;;13.38;66.99;98846.47;5094035;28;20060;-65
2022/09/26 10:56:36;;;;;;;3.97;1.90;;;;;;;13.52;67.09;98840.31;5100600;28;20054;-65
2022/09/26 10:59:07;;;;;;;2.47;1.58;;;;;;;13.69;65.92;98827.78;5096008;28;20060;-64
2022/09/26 11:01:41;;;;;;;2.50;1.60;;;;;;;13.30;64.74;98844.72;5094521;28;20526;-65
2022/09/26 11:05:55;;;;;;;4.28;1.75;;;;;;;13.75;64.30;98825.47;5094208;28;20052;-58
2022/09/26 11:07:04;;;;;;;2.42;1.70;;;;;;;13.67;65.20;98827.34;5093856;28;20048;-58
2022/09/26 11:09:32;;;;;;;3.40;1.30;;;;;;;13.75;63.92;98820.69;5094640;28;20051;-58
2022/09/26 11:11:59;;;;;;;3.83;1.70;;;;;;;13.94;62.96;98821.75;5094655;28;20477;-58
2022/09/26 11:14:28;;;;;;;3.42;1.40;;;;;;;14.07;63.33;98806.34;5094534;28;20082;-58
2022/09/26 11:16:58;;;;;;;3.83;1.48;;;;;;;14.36;62.76;98803.91;5093761;28;20067;-58
2022/09/26 11:19:37;;;;;;;2.75;1.38;;;;;;;14.41;61.75;98786.78;5094523;28;20056;-57
2022/09/26 11:22:13;;;;;;;3.42;1.52;;;;;;;14.54;60.98;98795.75;5104950;28;20071;-57
2022/09/26 11:24:47;;;;;;;4.30;1.55;;;;;;;14.21;61.26;98789.75;5114537;28;20055;-57
2022/09/26 11:27:25;;;;;;;2.72;1.70;;;;;;;14.30;61.19;98797.03;5114283;28;20059;-58
2022/09/26 11:30:01;;;;;;;2.13;1.48;;;;;;;14.21;61.73;98780.53;5114538;28;20066;-57
2022/09/26 11:32:39;;;;;;;3.45;1.70;;;;;;;13.93;62.76;98811.75;5114460;28;20063;-57
2022/09/26 11:35:14;;;;;;;2.63;1.60;;;;;;;13.86;62.63;98797.63;5114573;28;20062;-56
2022/09/26 11:38:05;;;;;;;3.38;1.25;;;;;;;13.96;62.24;98778.22;5094285;28;20067;-55
2022/09/26 11:40:50;;;;;;;3.28;1.60;;;;;;;13.87;63.36;98760.09;5093841;28;20056;-56
2022/09/26 11:43:34;;;;;;;2.80;1.58;;;;;;;13.79;64.02;98785.16;5093878;28;20052;-56
2022/09/26 11:46:15;;;;;;;2.80;1.35;;;;;;;13.96;62.55;98764.22;5093780;28;20059;-56
2022/09/26 11:49:02;;;;;;;3.53;1.70;;;;;;;13.97;63.72;98753.81;5094085;28;20055;-56
2022/09/26 11:51:44;;;;;;;3.53;1.67;;;;;;;13.71;63.42;98763.88;5097197;28;20056;-56
2022/09/26 11:54:58;;;;;;;2.30;1.45;;;;;;;14.05;63.17;98761.13;5096242;28;20055;-58
2022/09/26 11:57:37;;;;;;;2.55;1.40;;;;;;;14.47;62.23;98748.00;5069869;28;20058;-57
2022/09/26 12:00:14;;;;;;;2.13;1.38;;;;;;;14.60;60.91;98753.00;5103952;28;20472;-56
2022/09/26 12:03:15;;;;;;;2.28;1.50;;;;;;;14.67;60.35;98735.47;5103843;28;20044;-57